»·PEaware :: N64TZ KSFO-KSMF

N64TZ :: KSFO-KSMF

FLIGHT INFORMATION

Flight Status: Arrived
Operator: Privately registered:
United States
More flights under this callsign
Pilot: David H. (11212)
Aircraft: PIPER PA-28 CHEROKEE ARCHER
(P28A)
More flights by this aircraft type
Origin: KSFO San Francisco Intl
United States
Destination: KSMF Sacramento Intl
United States
More flights between these airports :: More routes between these airports
Route: +GAPP7 NORMM V150 SAC
File this flight plan on PilotEdge
Remarks:
Altitude:
(Current/Filed)
8,000ft
Speed:
(Current/Filed)
110kts
Departed: 04-Jan-18 05:11 PM
Arrived: 04-Jan-18 05:59 PM
Distance/Time
Traveled:
74nm/0:48
Distance/Time
To Go:
Arrived

Flight Plot

Page will automatically refresh every two minutes.

Flight plan parsing failed; only flown route is shown


Map Options




Map Legend


Flown Route
Filed Route
Departure Airport
Arrival Airport
Navaid (VOR, NDB)
Fix

Horizontal Profiles

Position Reports

Time Latitude Longitude Heading Altitude Ground
Speed
04-Jan-18 16:51 37.616756 -122.380553 298 16ft 0kts
04-Jan-18 16:52 37.616756 -122.380553 298 16ft 0kts
04-Jan-18 16:53 37.616756 -122.380553 298 16ft 0kts
04-Jan-18 16:54 37.616756 -122.380553 298 16ft 0kts
04-Jan-18 16:55 37.616756 -122.380553 298 16ft 0kts
04-Jan-18 16:56 37.616756 -122.380553 298 16ft 0kts
04-Jan-18 16:57 37.616756 -122.380553 298 16ft 0kts
04-Jan-18 16:58 37.616756 -122.380553 298 16ft 0kts
04-Jan-18 16:59 37.616756 -122.380553 298 16ft 0kts
04-Jan-18 17:00 37.616756 -122.380553 298 16ft 0kts
04-Jan-18 17:01 37.616756 -122.380553 298 16ft 0kts
04-Jan-18 17:02 37.616756 -122.380553 298 16ft 0kts
04-Jan-18 17:10 37.616758 -122.380558 301 16ft 0kts
04-Jan-18 17:11 37.616758 -122.380558 301 16ft 0kts
04-Jan-18 17:12 37.616821 -122.380527 58 16ft 0kts
04-Jan-18 17:13 37.616820 -122.380256 118 16ft 2kts
04-Jan-18 17:14 37.618316 -122.379493 11 16ft 10kts
04-Jan-18 17:15 37.619416 -122.379429 10 16ft 0kts
04-Jan-18 17:16 37.619521 -122.379398 29 16ft 2kts
04-Jan-18 17:17 37.625382 -122.389523 304 241ft 76kts
04-Jan-18 17:18 37.634154 -122.408752 296 1004ft 71kts
04-Jan-18 17:19 37.641703 -122.428750 301 1760ft 69kts
04-Jan-18 17:20 37.650361 -122.448949 294 2486ft 69kts
04-Jan-18 17:21 37.665770 -122.453831 25 3165ft 87kts
04-Jan-18 17:22 37.685198 -122.438559 27 3717ft 94kts
04-Jan-18 17:23 37.707351 -122.433251 355 4268ft 88kts
04-Jan-18 17:24 37.730252 -122.427902 0 4751ft 93kts
04-Jan-18 17:25 37.753836 -122.422834 351 5188ft 95kts
04-Jan-18 17:26 37.779620 -122.418618 359 5657ft 101kts
04-Jan-18 17:27 37.805768 -122.413994 356 6101ft 102kts
04-Jan-18 17:28 37.833699 -122.409230 1 6518ft 107kts
04-Jan-18 17:29 37.862374 -122.403808 4 6915ft 112kts
04-Jan-18 17:30 37.894804 -122.397045 7 6893ft 139kts
04-Jan-18 17:31 37.929827 -122.385891 15 6917ft 142kts
04-Jan-18 17:32 37.956586 -122.355195 55 6935ft 141kts
04-Jan-18 17:33 37.979143 -122.317925 55 6972ft 141kts
04-Jan-18 17:34 38.002651 -122.279814 53 7002ft 142kts
04-Jan-18 17:35 38.026938 -122.241732 56 7046ft 141kts
04-Jan-18 17:36 38.046884 -122.209332 55 7030ft 143kts
04-Jan-18 17:37 38.065683 -122.179186 55 7057ft 138kts
04-Jan-18 17:38 38.083003 -122.151291 61 7017ft 135kts
04-Jan-18 17:39 38.107097 -122.111426 61 6952ft 136kts
04-Jan-18 17:40 38.125618 -122.078956 58 6909ft 140kts
04-Jan-18 17:41 38.145009 -122.044546 58 6924ft 140kts
04-Jan-18 17:42 38.168114 -122.008250 54 6941ft 141kts
04-Jan-18 17:43 38.188759 -121.974370 55 6962ft 141kts
04-Jan-18 17:44 38.209487 -121.940598 52 6981ft 141kts
04-Jan-18 17:45 38.229804 -121.906857 56 6999ft 141kts
04-Jan-18 17:46 38.250015 -121.871268 54 7019ft 141kts
04-Jan-18 17:47 38.272571 -121.835807 52 7003ft 142kts
04-Jan-18 17:48 38.296489 -121.797841 55 6988ft 142kts
04-Jan-18 17:49 38.320137 -121.758538 54 6974ft 142kts
04-Jan-18 17:50 38.344671 -121.720813 31 6894ft 140kts
04-Jan-18 17:51 38.382879 -121.704904 15 5974ft 144kts
04-Jan-18 17:52 38.419838 -121.687543 16 5168ft 140kts
04-Jan-18 17:53 38.455572 -121.671969 11 4414ft 133kts
04-Jan-18 17:54 38.490478 -121.667607 355 3694ft 124kts
04-Jan-18 17:55 38.524011 -121.665617 355 3059ft 118kts
04-Jan-18 17:56 38.555787 -121.661986 357 3044ft 110kts
04-Jan-18 17:57 38.584668 -121.659618 355 2403ft 103kts
04-Jan-18 17:58 38.612002 -121.649291 25 1860ft 107kts
04-Jan-18 17:59 38.633829 -121.631272 33 1724ft 86kts
04-Jan-18 18:00 38.656145 -121.621541 7 1586ft 89kts
04-Jan-18 18:01 38.680312 -121.620698 5 1324ft 91kts
04-Jan-18 18:02 38.705087 -121.619833 5 986ft 89kts
04-Jan-18 18:03 38.720577 -121.608017 110 558ft 72kts
04-Jan-18 18:04 38.704719 -121.601164 179 28ft 58kts
04-Jan-18 18:05 38.701281 -121.599936 93 26ft 0kts
04-Jan-18 18:06 38.698053 -121.598613 179 26ft 24kts
04-Jan-18 18:07 38.690976 -121.598754 182 26ft 27kts
04-Jan-18 18:08 38.683539 -121.598858 181 26ft 25kts
04-Jan-18 18:09 38.680993 -121.597696 174 26ft 0kts
04-Jan-18 18:10 38.680993 -121.597696 174 26ft 0kts
04-Jan-18 18:11 38.680993 -121.597696 174 26ft 0kts
04-Jan-18 18:12 38.680993 -121.597696 174 26ft 0kts
04-Jan-18 18:13 38.680993 -121.597696 174 26ft 0kts
04-Jan-18 18:14 38.680993 -121.597696 174 26ft 0kts
04-Jan-18 18:15 38.680993 -121.597696 174 26ft 0kts
04-Jan-18 18:16 38.680993 -121.597696 174 26ft 0kts
04-Jan-18 18:17 38.680993 -121.597696 174 26ft 0kts
04-Jan-18 18:18 38.680993 -121.597696 174 26ft 0kts
04-Jan-18 18:19 38.680993 -121.597696 174 26ft 0kts
04-Jan-18 18:20 38.680993 -121.597696 174 26ft 0kts

Navigation Log

Ident Type
Flight plan parsing failed, navigation log unavailable